sensor_id;sensor_type;location;lat;lon;timestamp;P1;durP1;ratioP1;P2;durP2;ratioP2
11522;SDS011;40093;43.224;27.910;2022-09-09T00:01:54;4.53;;;2.50;;
11522;SDS011;40093;43.224;27.910;2022-09-09T00:04:28;3.17;;;2.40;;
11522;SDS011;40093;43.224;27.910;2022-09-09T00:06:59;3.70;;;2.33;;
11522;SDS011;40093;43.224;27.910;2022-09-09T00:09:33;2.97;;;2.30;;
11522;SDS011;40093;43.224;27.910;2022-09-09T00:12:08;2.60;;;2.40;;
11522;SDS011;40093;43.224;27.910;2022-09-09T00:14:39;2.43;;;2.20;;
11522;SDS011;40093;43.224;27.910;2022-09-09T00:17:12;3.50;;;2.50;;
11522;SDS011;40093;43.224;27.910;2022-09-09T00:19:46;4.90;;;2.30;;
11522;SDS011;40093;43.224;27.910;2022-09-09T00:22:22;2.50;;;2.30;;
11522;SDS011;40093;43.224;27.910;2022-09-09T00:24:53;3.63;;;2.40;;
11522;SDS011;40093;43.224;27.910;2022-09-09T00:27:24;3.93;;;2.40;;
11522;SDS011;40093;43.224;27.910;2022-09-09T00:29:57;6.13;;;2.43;;
11522;SDS011;40093;43.224;27.910;2022-09-09T00:32:28;5.17;;;2.40;;
11522;SDS011;40093;43.224;27.910;2022-09-09T00:34:58;2.73;;;2.30;;
11522;SDS011;40093;43.224;27.910;2022-09-09T00:37:30;3.13;;;2.30;;
11522;SDS011;40093;43.224;27.910;2022-09-09T00:40:02;3.70;;;2.30;;
11522;SDS011;40093;43.224;27.910;2022-09-09T00:42:43;3.17;;;2.13;;
11522;SDS011;40093;43.224;27.910;2022-09-09T00:45:15;4.50;;;2.00;;
11522;SDS011;40093;43.224;27.910;2022-09-09T00:47:55;2.80;;;2.33;;
11522;SDS011;40093;43.224;27.910;2022-09-09T00:50:29;2.53;;;2.17;;
11522;SDS011;40093;43.224;27.910;2022-09-09T00:53:12;2.83;;;2.17;;
11522;SDS011;40093;43.224;27.910;2022-09-09T00:55:53;3.07;;;2.00;;
11522;SDS011;40093;43.224;27.910;2022-09-09T00:58:27;2.20;;;2.00;;
11522;SDS011;40093;43.224;27.910;2022-09-09T01:00:56;2.43;;;2.00;;
11522;SDS011;40093;43.224;27.910;2022-09-09T01:03:30;3.43;;;2.20;;
11522;SDS011;40093;43.224;27.910;2022-09-09T01:06:01;2.37;;;2.17;;
11522;SDS011;40093;43.224;27.910;2022-09-09T01:11:45;2.83;;;1.90;;
11522;SDS011;40093;43.224;27.910;2022-09-09T01:14:30;2.60;;;2.00;;
11522;SDS011;40093;43.224;27.910;2022-09-09T01:17:06;5.17;;;3.20;;
11522;SDS011;40093;43.224;27.910;2022-09-09T01:19:44;2.53;;;2.33;;
11522;SDS011;40093;43.224;27.910;2022-09-09T01:22:18;3.63;;;2.30;;
11522;SDS011;40093;43.224;27.910;2022-09-09T01:25:10;2.67;;;2.20;;
11522;SDS011;40093;43.224;27.910;2022-09-09T01:27:46;2.30;;;2.10;;
11522;SDS011;40093;43.224;27.910;2022-09-09T01:30:16;4.03;;;2.23;;
11522;SDS011;40093;43.224;27.910;2022-09-09T01:32:45;4.73;;;2.40;;
11522;SDS011;40093;43.224;27.910;2022-09-09T01:35:15;5.10;;;2.30;;
11522;SDS011;40093;43.224;27.910;2022-09-09T01:37:51;2.97;;;2.20;;
11522;SDS011;40093;43.224;27.910;2022-09-09T01:40:18;2.20;;;2.00;;
11522;SDS011;40093;43.224;27.910;2022-09-09T01:42:47;2.40;;;2.20;;
11522;SDS011;40093;43.224;27.910;2022-09-09T01:45:14;2.47;;;2.27;;
11522;SDS011;40093;43.224;27.910;2022-09-09T01:47:41;3.27;;;2.20;;
11522;SDS011;40093;43.224;27.910;2022-09-09T01:50:10;3.20;;;2.30;;
11522;SDS011;40093;43.224;27.910;2022-09-09T01:52:39;4.23;;;2.33;;
11522;SDS011;40093;43.224;27.910;2022-09-09T01:55:07;2.50;;;2.10;;
11522;SDS011;40093;43.224;27.910;2022-09-09T01:57:37;4.13;;;2.30;;
11522;SDS011;40093;43.224;27.910;2022-09-09T02:00:11;3.30;;;2.30;;
11522;SDS011;40093;43.224;27.910;2022-09-09T02:02:44;2.40;;;2.20;;
11522;SDS011;40093;43.224;27.910;2022-09-09T02:05:22;2.70;;;2.30;;
11522;SDS011;40093;43.224;27.910;2022-09-09T02:08:03;2.50;;;2.30;;
11522;SDS011;40093;43.224;27.910;2022-09-09T02:10:37;2.27;;;2.00;;
11522;SDS011;40093;43.224;27.910;2022-09-09T02:13:12;4.67;;;2.20;;
11522;SDS011;40093;43.224;27.910;2022-09-09T02:15:43;3.47;;;2.30;;
11522;SDS011;40093;43.224;27.910;2022-09-09T02:18:19;3.57;;;2.40;;
11522;SDS011;40093;43.224;27.910;2022-09-09T02:20:52;3.33;;;2.00;;
11522;SDS011;40093;43.224;27.910;2022-09-09T02:23:21;2.73;;;2.40;;
11522;SDS011;40093;43.224;27.910;2022-09-09T02:25:48;2.37;;;2.17;;
11522;SDS011;40093;43.224;27.910;2022-09-09T02:28:19;5.20;;;2.30;;
11522;SDS011;40093;43.224;27.910;2022-09-09T02:30:50;3.40;;;2.40;;
11522;SDS011;40093;43.224;27.910;2022-09-09T02:33:21;3.53;;;2.30;;
11522;SDS011;40093;43.224;27.910;2022-09-09T02:35:51;2.57;;;2.20;;
11522;SDS011;40093;43.224;27.910;2022-09-09T02:38:21;2.60;;;2.30;;
11522;SDS011;40093;43.224;27.910;2022-09-09T02:40:53;2.80;;;2.20;;
11522;SDS011;40093;43.224;27.910;2022-09-09T02:43:21;2.70;;;2.37;;
11522;SDS011;40093;43.224;27.910;2022-09-09T02:45:53;5.10;;;2.63;;
11522;SDS011;40093;43.224;27.910;2022-09-09T02:48:30;3.30;;;2.47;;
11522;SDS011;40093;43.224;27.910;2022-09-09T02:51:05;4.53;;;2.70;;
11522;SDS011;40093;43.224;27.910;2022-09-09T02:53:42;2.87;;;2.57;;
11522;SDS011;40093;43.224;27.910;2022-09-09T02:56:14;4.87;;;2.50;;
11522;SDS011;40093;43.224;27.910;2022-09-09T02:58:44;3.60;;;2.67;;
11522;SDS011;40093;43.224;27.910;2022-09-09T03:01:13;3.50;;;2.50;;
11522;SDS011;40093;43.224;27.910;2022-09-09T03:03:42;2.50;;;2.17;;
11522;SDS011;40093;43.224;27.910;2022-09-09T03:06:09;3.37;;;2.30;;
11522;SDS011;40093;43.224;27.910;2022-09-09T03:08:42;4.90;;;3.30;;
11522;SDS011;40093;43.224;27.910;2022-09-09T03:11:09;5.23;;;3.43;;
11522;SDS011;40093;43.224;27.910;2022-09-09T03:13:36;2.50;;;2.30;;
11522;SDS011;40093;43.224;27.910;2022-09-09T03:16:04;4.23;;;2.80;;
11522;SDS011;40093;43.224;27.910;2022-09-09T03:18:34;5.60;;;2.83;;
11522;SDS011;40093;43.224;27.910;2022-09-09T03:21:01;4.77;;;3.37;;
11522;SDS011;40093;43.224;27.910;2022-09-09T03:23:28;6.57;;;3.70;;
11522;SDS011;40093;43.224;27.910;2022-09-09T03:25:56;3.87;;;3.30;;
11522;SDS011;40093;43.224;27.910;2022-09-09T03:28:24;5.87;;;3.50;;
11522;SDS011;40093;43.224;27.910;2022-09-09T03:30:58;13.60;;;12.23;;
11522;SDS011;40093;43.224;27.910;2022-09-09T03:33:26;6.13;;;4.40;;
11522;SDS011;40093;43.224;27.910;2022-09-09T03:35:56;7.43;;;4.60;;
11522;SDS011;40093;43.224;27.910;2022-09-09T03:38:23;5.37;;;4.63;;
11522;SDS011;40093;43.224;27.910;2022-09-09T03:40:54;5.17;;;3.70;;
11522;SDS011;40093;43.224;27.910;2022-09-09T03:43:22;4.40;;;3.20;;
11522;SDS011;40093;43.224;27.910;2022-09-09T03:45:50;4.47;;;3.13;;
11522;SDS011;40093;43.224;27.910;2022-09-09T03:48:17;5.77;;;3.43;;
11522;SDS011;40093;43.224;27.910;2022-09-09T03:50:47;5.57;;;2.63;;
11522;SDS011;40093;43.224;27.910;2022-09-09T03:53:18;4.73;;;2.97;;
11522;SDS011;40093;43.224;27.910;2022-09-09T03:55:47;4.50;;;3.43;;
11522;SDS011;40093;43.224;27.910;2022-09-09T03:58:20;5.33;;;2.73;;
11522;SDS011;40093;43.224;27.910;2022-09-09T04:00:53;3.70;;;2.70;;
11522;SDS011;40093;43.224;27.910;2022-09-09T04:03:21;4.27;;;2.87;;
11522;SDS011;40093;43.224;27.910;2022-09-09T04:05:49;4.30;;;2.70;;
11522;SDS011;40093;43.224;27.910;2022-09-09T04:08:21;3.23;;;2.93;;
11522;SDS011;40093;43.224;27.910;2022-09-09T04:10:50;4.47;;;3.20;;
11522;SDS011;40093;43.224;27.910;2022-09-09T04:13:19;4.73;;;2.50;;
11522;SDS011;40093;43.224;27.910;2022-09-09T04:15:50;5.60;;;2.50;;
11522;SDS011;40093;43.224;27.910;2022-09-09T04:18:17;3.50;;;2.40;;
11522;SDS011;40093;43.224;27.910;2022-09-09T04:20:46;4.37;;;2.90;;
11522;SDS011;40093;43.224;27.910;2022-09-09T04:23:14;8.97;;;4.20;;
11522;SDS011;40093;43.224;27.910;2022-09-09T04:25:45;5.93;;;4.60;;
11522;SDS011;40093;43.224;27.910;2022-09-09T04:28:12;16.03;;;13.97;;
11522;SDS011;40093;43.224;27.910;2022-09-09T04:30:39;12.60;;;10.57;;
11522;SDS011;40093;43.224;27.910;2022-09-09T04:33:07;6.50;;;5.90;;
11522;SDS011;40093;43.224;27.910;2022-09-09T04:35:34;5.90;;;4.80;;
11522;SDS011;40093;43.224;27.910;2022-09-09T04:38:02;5.37;;;3.50;;
11522;SDS011;40093;43.224;27.910;2022-09-09T04:40:30;5.43;;;3.57;;
11522;SDS011;40093;43.224;27.910;2022-09-09T04:43:02;8.27;;;3.53;;
11522;SDS011;40093;43.224;27.910;2022-09-09T04:45:30;5.70;;;3.20;;
11522;SDS011;40093;43.224;27.910;2022-09-09T04:47:57;5.23;;;3.53;;
11522;SDS011;40093;43.224;27.910;2022-09-09T04:50:25;3.93;;;3.20;;
11522;SDS011;40093;43.224;27.910;2022-09-09T04:52:53;5.20;;;3.90;;
11522;SDS011;40093;43.224;27.910;2022-09-09T04:55:20;5.20;;;3.40;;
11522;SDS011;40093;43.224;27.910;2022-09-09T04:57:47;6.40;;;3.90;;
11522;SDS011;40093;43.224;27.910;2022-09-09T05:00:17;7.67;;;3.67;;
11522;SDS011;40093;43.224;27.910;2022-09-09T05:02:44;7.60;;;4.17;;
11522;SDS011;40093;43.224;27.910;2022-09-09T05:05:13;9.63;;;5.50;;
11522;SDS011;40093;43.224;27.910;2022-09-09T05:07:40;8.50;;;5.07;;
11522;SDS011;40093;43.224;27.910;2022-09-09T05:10:16;6.63;;;4.53;;
11522;SDS011;40093;43.224;27.910;2022-09-09T05:12:51;8.60;;;4.30;;
11522;SDS011;40093;43.224;27.910;2022-09-09T05:15:21;8.57;;;4.60;;
11522;SDS011;40093;43.224;27.910;2022-09-09T05:17:50;7.10;;;4.27;;
11522;SDS011;40093;43.224;27.910;2022-09-09T05:20:18;5.00;;;2.80;;
11522;SDS011;40093;43.224;27.910;2022-09-09T05:22:46;8.50;;;4.30;;
11522;SDS011;40093;43.224;27.910;2022-09-09T05:25:15;5.87;;;3.73;;
11522;SDS011;40093;43.224;27.910;2022-09-09T05:27:44;7.83;;;2.87;;
11522;SDS011;40093;43.224;27.910;2022-09-09T05:30:24;5.27;;;3.03;;
11522;SDS011;40093;43.224;27.910;2022-09-09T05:32:55;5.30;;;3.00;;
11522;SDS011;40093;43.224;27.910;2022-09-09T05:35:27;4.30;;;2.20;;
11522;SDS011;40093;43.224;27.910;2022-09-09T05:37:58;3.53;;;2.30;;
11522;SDS011;40093;43.224;27.910;2022-09-09T05:40:35;2.50;;;2.10;;
11522;SDS011;40093;43.224;27.910;2022-09-09T05:43:02;4.20;;;2.00;;
11522;SDS011;40093;43.224;27.910;2022-09-09T05:45:39;3.40;;;2.20;;
11522;SDS011;40093;43.224;27.910;2022-09-09T05:48:06;5.43;;;2.43;;
11522;SDS011;40093;43.224;27.910;2022-09-09T05:50:34;4.50;;;2.60;;
11522;SDS011;40093;43.224;27.910;2022-09-09T05:53:03;3.73;;;2.40;;
11522;SDS011;40093;43.224;27.910;2022-09-09T05:55:30;4.27;;;2.27;;
11522;SDS011;40093;43.224;27.910;2022-09-09T05:57:57;4.03;;;2.10;;
11522;SDS011;40093;43.224;27.910;2022-09-09T06:00:28;4.63;;;2.03;;
11522;SDS011;40093;43.224;27.910;2022-09-09T06:02:58;5.17;;;2.00;;
11522;SDS011;40093;43.224;27.910;2022-09-09T06:05:25;4.27;;;2.13;;
11522;SDS011;40093;43.224;27.910;2022-09-09T06:07:53;5.20;;;2.10;;
11522;SDS011;40093;43.224;27.910;2022-09-09T06:10:20;2.37;;;2.00;;
11522;SDS011;40093;43.224;27.910;2022-09-09T06:12:48;3.63;;;2.20;;
11522;SDS011;40093;43.224;27.910;2022-09-09T06:15:15;4.10;;;2.30;;
11522;SDS011;40093;43.224;27.910;2022-09-09T06:17:42;4.47;;;2.17;;
11522;SDS011;40093;43.224;27.910;2022-09-09T06:20:14;4.30;;;2.50;;
11522;SDS011;40093;43.224;27.910;2022-09-09T06:22:42;3.67;;;2.20;;
11522;SDS011;40093;43.224;27.910;2022-09-09T06:25:12;2.60;;;2.00;;
11522;SDS011;40093;43.224;27.910;2022-09-09T06:27:39;3.33;;;2.00;;
11522;SDS011;40093;43.224;27.910;2022-09-09T06:30:07;5.13;;;2.13;;
11522;SDS011;40093;43.224;27.910;2022-09-09T06:32:36;3.33;;;1.97;;
11522;SDS011;40093;43.224;27.910;2022-09-09T06:35:06;3.67;;;2.00;;
11522;SDS011;40093;43.224;27.910;2022-09-09T06:37:36;2.90;;;2.07;;
11522;SDS011;40093;43.224;27.910;2022-09-09T06:40:04;2.40;;;1.90;;
11522;SDS011;40093;43.224;27.910;2022-09-09T06:42:33;2.80;;;1.77;;
11522;SDS011;40093;43.224;27.910;2022-09-09T06:45:00;4.53;;;2.03;;
11522;SDS011;40093;43.224;27.910;2022-09-09T06:47:27;3.93;;;2.23;;
11522;SDS011;40093;43.224;27.910;2022-09-09T06:49:57;4.00;;;2.10;;
11522;SDS011;40093;43.224;27.910;2022-09-09T06:52:25;3.57;;;2.10;;
11522;SDS011;40093;43.224;27.910;2022-09-09T06:54:55;3.97;;;2.27;;
11522;SDS011;40093;43.224;27.910;2022-09-09T06:57:23;5.23;;;2.17;;
11522;SDS011;40093;43.224;27.910;2022-09-09T06:59:52;4.13;;;2.23;;
11522;SDS011;40093;43.224;27.910;2022-09-09T07:02:19;4.17;;;2.07;;
11522;SDS011;40093;43.224;27.910;2022-09-09T07:04:47;7.20;;;2.20;;
11522;SDS011;40093;43.224;27.910;2022-09-09T07:07:15;4.17;;;1.93;;
11522;SDS011;40093;43.224;27.910;2022-09-09T07:09:43;2.87;;;2.13;;
11522;SDS011;40093;43.224;27.910;2022-09-09T07:12:12;2.67;;;2.00;;
11522;SDS011;40093;43.224;27.910;2022-09-09T07:14:39;3.43;;;2.00;;
11522;SDS011;40093;43.224;27.910;2022-09-09T07:17:07;3.77;;;2.23;;
11522;SDS011;40093;43.224;27.910;2022-09-09T07:19:34;1.93;;;1.80;;
11522;SDS011;40093;43.224;27.910;2022-09-09T07:22:02;3.60;;;2.10;;
11522;SDS011;40093;43.224;27.910;2022-09-09T07:24:29;4.63;;;2.27;;
11522;SDS011;40093;43.224;27.910;2022-09-09T07:26:57;2.87;;;2.10;;
11522;SDS011;40093;43.224;27.910;2022-09-09T07:29:30;4.43;;;2.20;;
11522;SDS011;40093;43.224;27.910;2022-09-09T07:31:57;4.63;;;2.30;;
11522;SDS011;40093;43.224;27.910;2022-09-09T07:34:24;4.43;;;2.30;;
11522;SDS011;40093;43.224;27.910;2022-09-09T07:36:52;3.80;;;2.20;;
11522;SDS011;40093;43.224;27.910;2022-09-09T07:39:26;2.80;;;2.00;;
11522;SDS011;40093;43.224;27.910;2022-09-09T07:41:53;4.70;;;2.10;;
11522;SDS011;40093;43.224;27.910;2022-09-09T07:44:23;4.63;;;1.97;;
11522;SDS011;40093;43.224;27.910;2022-09-09T07:46:53;3.00;;;1.77;;
11522;SDS011;40093;43.224;27.910;2022-09-09T07:49:21;3.47;;;1.90;;
11522;SDS011;40093;43.224;27.910;2022-09-09T07:51:48;4.97;;;2.10;;
11522;SDS011;40093;43.224;27.910;2022-09-09T07:54:16;3.53;;;1.60;;
11522;SDS011;40093;43.224;27.910;2022-09-09T07:56:45;2.67;;;1.80;;
11522;SDS011;40093;43.224;27.910;2022-09-09T07:59:13;3.00;;;1.90;;
11522;SDS011;40093;43.224;27.910;2022-09-09T08:01:42;4.83;;;1.80;;
11522;SDS011;40093;43.224;27.910;2022-09-09T08:04:13;3.63;;;1.70;;
11522;SDS011;40093;43.224;27.910;2022-09-09T08:06:42;3.00;;;1.80;;
11522;SDS011;40093;43.224;27.910;2022-09-09T08:09:18;3.97;;;1.70;;
11522;SDS011;40093;43.224;27.910;2022-09-09T08:11:46;2.93;;;1.93;;
11522;SDS011;40093;43.224;27.910;2022-09-09T08:14:13;2.10;;;1.90;;
11522;SDS011;40093;43.224;27.910;2022-09-09T08:16:42;3.90;;;1.80;;
11522;SDS011;40093;43.224;27.910;2022-09-09T08:19:13;3.63;;;2.40;;
11522;SDS011;40093;43.224;27.910;2022-09-09T08:21:41;1.90;;;1.60;;
11522;SDS011;40093;43.224;27.910;2022-09-09T08:24:11;3.50;;;1.63;;
11522;SDS011;40093;43.224;27.910;2022-09-09T08:26:40;4.40;;;1.87;;
11522;SDS011;40093;43.224;27.910;2022-09-09T08:29:10;3.53;;;2.00;;
11522;SDS011;40093;43.224;27.910;2022-09-09T08:31:39;4.10;;;2.00;;
11522;SDS011;40093;43.224;27.910;2022-09-09T08:34:13;3.20;;;1.90;;
11522;SDS011;40093;43.224;27.910;2022-09-09T08:36:42;2.33;;;1.73;;
11522;SDS011;40093;43.224;27.910;2022-09-09T08:39:17;3.27;;;1.90;;
11522;SDS011;40093;43.224;27.910;2022-09-09T08:44:50;3.33;;;2.13;;
11522;SDS011;40093;43.224;27.910;2022-09-09T08:47:39;4.43;;;1.90;;
11522;SDS011;40093;43.224;27.910;2022-09-09T08:50:21;4.47;;;1.90;;
11522;SDS011;40093;43.224;27.910;2022-09-09T08:52:54;4.27;;;2.10;;
11522;SDS011;40093;43.224;27.910;2022-09-09T08:55:35;6.60;;;2.03;;
11522;SDS011;40093;43.224;27.910;2022-09-09T08:58:09;3.77;;;2.00;;
11522;SDS011;40093;43.224;27.910;2022-09-09T09:00:44;4.27;;;1.83;;
11522;SDS011;40093;43.224;27.910;2022-09-09T09:03:23;3.70;;;1.90;;
11522;SDS011;40093;43.224;27.910;2022-09-09T09:06:01;5.50;;;2.00;;
11522;SDS011;40093;43.224;27.910;2022-09-09T09:08:38;3.57;;;1.80;;
11522;SDS011;40093;43.224;27.910;2022-09-09T09:11:34;4.10;;;1.90;;
11522;SDS011;40093;43.224;27.910;2022-09-09T09:14:07;5.00;;;2.10;;
11522;SDS011;40093;43.224;27.910;2022-09-09T09:16:52;2.73;;;1.83;;
11522;SDS011;40093;43.224;27.910;2022-09-09T09:19:23;5.43;;;2.50;;
11522;SDS011;40093;43.224;27.910;2022-09-09T09:21:54;2.77;;;1.90;;
11522;SDS011;40093;43.224;27.910;2022-09-09T09:24:31;3.10;;;1.87;;
11522;SDS011;40093;43.224;27.910;2022-09-09T09:27:12;3.67;;;2.10;;
11522;SDS011;40093;43.224;27.910;2022-09-09T09:29:42;3.53;;;2.10;;
11522;SDS011;40093;43.224;27.910;2022-09-09T09:32:13;2.50;;;2.00;;
11522;SDS011;40093;43.224;27.910;2022-09-09T09:34:48;5.00;;;2.17;;
11522;SDS011;40093;43.224;27.910;2022-09-09T09:37:20;3.27;;;1.80;;
11522;SDS011;40093;43.224;27.910;2022-09-09T09:39:53;4.90;;;2.30;;
11522;SDS011;40093;43.224;27.910;2022-09-09T09:42:20;3.87;;;2.00;;
11522;SDS011;40093;43.224;27.910;2022-09-09T09:44:49;4.27;;;2.00;;
11522;SDS011;40093;43.224;27.910;2022-09-09T09:47:17;5.87;;;2.17;;
11522;SDS011;40093;43.224;27.910;2022-09-09T09:49:52;4.43;;;2.00;;
11522;SDS011;40093;43.224;27.910;2022-09-09T09:52:23;3.13;;;2.23;;
11522;SDS011;40093;43.224;27.910;2022-09-09T09:54:53;2.80;;;1.97;;
11522;SDS011;40093;43.224;27.910;2022-09-09T09:57:31;2.10;;;1.87;;
11522;SDS011;40093;43.224;27.910;2022-09-09T10:00:13;4.80;;;2.30;;
11522;SDS011;40093;43.224;27.910;2022-09-09T10:02:43;2.27;;;1.90;;
11522;SDS011;40093;43.224;27.910;2022-09-09T10:05:15;4.17;;;2.10;;
11522;SDS011;40093;43.224;27.910;2022-09-09T10:07:45;2.87;;;2.20;;
11522;SDS011;40093;43.224;27.910;2022-09-09T10:10:13;5.30;;;2.30;;
11522;SDS011;40093;43.224;27.910;2022-09-09T10:12:54;2.57;;;1.90;;
11522;SDS011;40093;43.224;27.910;2022-09-09T10:15:34;5.57;;;2.07;;
11522;SDS011;40093;43.224;27.910;2022-09-09T10:18:16;3.73;;;2.03;;
11522;SDS011;40093;43.224;27.910;2022-09-09T10:20:58;3.43;;;2.00;;
11522;SDS011;40093;43.224;27.910;2022-09-09T10:23:41;3.13;;;2.00;;
11522;SDS011;40093;43.224;27.910;2022-09-09T10:26:26;3.27;;;1.97;;
11522;SDS011;40093;43.224;27.910;2022-09-09T10:29:06;3.63;;;2.20;;
11522;SDS011;40093;43.224;27.910;2022-09-09T10:31:47;3.63;;;2.10;;
11522;SDS011;40093;43.224;27.910;2022-09-09T10:34:24;3.50;;;2.20;;
11522;SDS011;40093;43.224;27.910;2022-09-09T10:37:11;3.07;;;1.90;;
11522;SDS011;40093;43.224;27.910;2022-09-09T10:39:51;2.73;;;2.00;;
11522;SDS011;40093;43.224;27.910;2022-09-09T10:42:29;4.03;;;2.20;;
11522;SDS011;40093;43.224;27.910;2022-09-09T10:45:01;2.70;;;2.13;;
11522;SDS011;40093;43.224;27.910;2022-09-09T10:47:43;4.17;;;2.20;;
11522;SDS011;40093;43.224;27.910;2022-09-09T10:50:33;5.03;;;2.30;;
11522;SDS011;40093;43.224;27.910;2022-09-09T10:53:10;3.10;;;2.10;;
11522;SDS011;40093;43.224;27.910;2022-09-09T10:55:44;2.60;;;2.13;;
11522;SDS011;40093;43.224;27.910;2022-09-09T10:58:19;2.97;;;2.10;;
11522;SDS011;40093;43.224;27.910;2022-09-09T11:00:53;3.67;;;2.03;;
11522;SDS011;40093;43.224;27.910;2022-09-09T11:03:25;4.27;;;2.03;;
11522;SDS011;40093;43.224;27.910;2022-09-09T11:05:57;3.67;;;2.13;;
11522;SDS011;40093;43.224;27.910;2022-09-09T11:08:28;3.80;;;2.30;;
11522;SDS011;40093;43.224;27.910;2022-09-09T11:11:00;4.63;;;2.20;;
11522;SDS011;40093;43.224;27.910;2022-09-09T11:13:32;4.63;;;2.37;;
11522;SDS011;40093;43.224;27.910;2022-09-09T11:16:05;4.53;;;2.10;;
11522;SDS011;40093;43.224;27.910;2022-09-09T11:18:46;3.73;;;2.60;;
11522;SDS011;40093;43.224;27.910;2022-09-09T11:21:16;2.90;;;1.97;;
11522;SDS011;40093;43.224;27.910;2022-09-09T11:23:48;2.70;;;1.97;;
11522;SDS011;40093;43.224;27.910;2022-09-09T11:26:24;2.50;;;2.00;;
11522;SDS011;40093;43.224;27.910;2022-09-09T11:29:02;5.00;;;2.20;;
11522;SDS011;40093;43.224;27.910;2022-09-09T11:31:44;3.93;;;2.20;;
11522;SDS011;40093;43.224;27.910;2022-09-09T11:34:27;5.50;;;2.33;;
11522;SDS011;40093;43.224;27.910;2022-09-09T11:37:08;4.13;;;2.30;;
11522;SDS011;40093;43.224;27.910;2022-09-09T11:39:59;5.37;;;2.23;;
11522;SDS011;40093;43.224;27.910;2022-09-09T11:42:37;4.97;;;2.57;;
11522;SDS011;40093;43.224;27.910;2022-09-09T11:45:08;2.70;;;2.27;;
11522;SDS011;40093;43.224;27.910;2022-09-09T11:47:38;3.03;;;2.30;;
11522;SDS011;40093;43.224;27.910;2022-09-09T11:50:09;2.80;;;2.00;;
11522;SDS011;40093;43.224;27.910;2022-09-09T11:52:39;3.37;;;2.30;;
11522;SDS011;40093;43.224;27.910;2022-09-09T11:55:11;3.53;;;2.20;;
11522;SDS011;40093;43.224;27.910;2022-09-09T11:57:58;3.13;;;2.30;;
11522;SDS011;40093;43.224;27.910;2022-09-09T12:00:31;2.50;;;2.00;;
11522;SDS011;40093;43.224;27.910;2022-09-09T12:03:02;4.93;;;2.07;;
11522;SDS011;40093;43.224;27.910;2022-09-09T12:05:36;3.97;;;2.20;;
11522;SDS011;40093;43.224;27.910;2022-09-09T12:08:05;5.10;;;2.33;;
11522;SDS011;40093;43.224;27.910;2022-09-09T12:10:36;2.57;;;1.80;;
11522;SDS011;40093;43.224;27.910;2022-09-09T12:13:17;3.23;;;2.00;;
11522;SDS011;40093;43.224;27.910;2022-09-09T12:15:47;3.63;;;2.13;;
11522;SDS011;40093;43.224;27.910;2022-09-09T12:18:21;6.20;;;2.20;;
11522;SDS011;40093;43.224;27.910;2022-09-09T12:20:52;3.87;;;2.00;;
11522;SDS011;40093;43.224;27.910;2022-09-09T12:23:37;2.70;;;1.97;;
11522;SDS011;40093;43.224;27.910;2022-09-09T12:28:58;2.20;;;1.60;;
11522;SDS011;40093;43.224;27.910;2022-09-09T12:31:33;2.37;;;1.70;;
11522;SDS011;40093;43.224;27.910;2022-09-09T12:34:09;4.00;;;2.10;;
11522;SDS011;40093;43.224;27.910;2022-09-09T12:36:41;2.43;;;2.10;;
11522;SDS011;40093;43.224;27.910;2022-09-09T12:39:16;3.70;;;1.73;;
11522;SDS011;40093;43.224;27.910;2022-09-09T12:41:52;2.73;;;2.10;;
11522;SDS011;40093;43.224;27.910;2022-09-09T12:44:24;6.13;;;2.30;;
11522;SDS011;40093;43.224;27.910;2022-09-09T12:46:53;4.67;;;2.03;;
11522;SDS011;40093;43.224;27.910;2022-09-09T12:49:26;3.60;;;2.10;;
11522;SDS011;40093;43.224;27.910;2022-09-09T12:51:56;6.07;;;2.20;;
11522;SDS011;40093;43.224;27.910;2022-09-09T12:54:24;5.27;;;2.10;;
11522;SDS011;40093;43.224;27.910;2022-09-09T12:56:51;4.27;;;2.27;;
11522;SDS011;40093;43.224;27.910;2022-09-09T12:59:36;3.07;;;1.90;;
11522;SDS011;40093;43.224;27.910;2022-09-09T13:02:11;4.47;;;2.00;;
11522;SDS011;40093;43.224;27.910;2022-09-09T13:04:45;7.80;;;2.30;;
11522;SDS011;40093;43.224;27.910;2022-09-09T13:07:15;4.20;;;2.20;;
11522;SDS011;40093;43.224;27.910;2022-09-09T13:09:45;3.07;;;2.00;;
11522;SDS011;40093;43.224;27.910;2022-09-09T13:12:14;2.77;;;2.27;;
11522;SDS011;40093;43.224;27.910;2022-09-09T13:14:46;3.63;;;2.10;;
11522;SDS011;40093;43.224;27.910;2022-09-09T13:17:18;4.20;;;2.30;;
11522;SDS011;40093;43.224;27.910;2022-09-09T13:19:48;3.87;;;2.17;;
11522;SDS011;40093;43.224;27.910;2022-09-09T13:22:20;7.73;;;2.53;;
11522;SDS011;40093;43.224;27.910;2022-09-09T13:24:59;3.60;;;2.10;;
11522;SDS011;40093;43.224;27.910;2022-09-09T13:27:29;3.20;;;2.40;;
11522;SDS011;40093;43.224;27.910;2022-09-09T13:33:03;3.63;;;2.60;;
11522;SDS011;40093;43.224;27.910;2022-09-09T13:35:33;4.40;;;2.80;;
11522;SDS011;40093;43.224;27.910;2022-09-09T13:38:08;4.57;;;2.70;;
11522;SDS011;40093;43.224;27.910;2022-09-09T13:40:37;5.40;;;2.77;;
11522;SDS011;40093;43.224;27.910;2022-09-09T13:43:04;4.37;;;2.87;;
11522;SDS011;40093;43.224;27.910;2022-09-09T13:45:34;4.37;;;3.10;;
11522;SDS011;40093;43.224;27.910;2022-09-09T13:48:08;3.70;;;3.20;;
11522;SDS011;40093;43.224;27.910;2022-09-09T13:50:37;4.97;;;3.20;;
11522;SDS011;40093;43.224;27.910;2022-09-09T13:53:04;4.80;;;3.23;;
11522;SDS011;40093;43.224;27.910;2022-09-09T13:55:32;5.27;;;3.67;;
11522;SDS011;40093;43.224;27.910;2022-09-09T13:58:04;5.40;;;3.70;;
11522;SDS011;40093;43.224;27.910;2022-09-09T14:00:32;4.33;;;3.50;;
11522;SDS011;40093;43.224;27.910;2022-09-09T14:03:02;4.30;;;3.90;;
11522;SDS011;40093;43.224;27.910;2022-09-09T14:05:30;4.30;;;3.87;;
11522;SDS011;40093;43.224;27.910;2022-09-09T14:07:59;3.90;;;3.60;;
11522;SDS011;40093;43.224;27.910;2022-09-09T14:10:27;5.57;;;3.97;;
11522;SDS011;40093;43.224;27.910;2022-09-09T14:12:54;4.77;;;3.80;;
11522;SDS011;40093;43.224;27.910;2022-09-09T14:15:22;4.73;;;4.23;;
11522;SDS011;40093;43.224;27.910;2022-09-09T14:17:49;5.73;;;3.77;;
11522;SDS011;40093;43.224;27.910;2022-09-09T14:20:18;6.43;;;3.97;;
11522;SDS011;40093;43.224;27.910;2022-09-09T14:22:46;5.70;;;3.80;;
11522;SDS011;40093;43.224;27.910;2022-09-09T14:25:13;4.13;;;3.77;;
11522;SDS011;40093;43.224;27.910;2022-09-09T14:27:41;5.33;;;4.00;;
11522;SDS011;40093;43.224;27.910;2022-09-09T14:30:10;4.17;;;3.77;;
11522;SDS011;40093;43.224;27.910;2022-09-09T14:32:38;3.90;;;3.60;;
11522;SDS011;40093;43.224;27.910;2022-09-09T14:35:06;5.80;;;4.23;;
11522;SDS011;40093;43.224;27.910;2022-09-09T14:37:36;4.87;;;3.90;;
11522;SDS011;40093;43.224;27.910;2022-09-09T14:40:04;4.07;;;3.60;;
11522;SDS011;40093;43.224;27.910;2022-09-09T14:42:33;4.03;;;3.63;;
11522;SDS011;40093;43.224;27.910;2022-09-09T14:45:04;5.53;;;3.87;;
11522;SDS011;40093;43.224;27.910;2022-09-09T14:47:35;4.20;;;3.80;;
11522;SDS011;40093;43.224;27.910;2022-09-09T14:50:05;6.07;;;4.10;;
11522;SDS011;40093;43.224;27.910;2022-09-09T14:52:40;4.40;;;3.83;;
11522;SDS011;40093;43.224;27.910;2022-09-09T14:55:07;4.00;;;3.60;;
11522;SDS011;40093;43.224;27.910;2022-09-09T14:57:36;3.90;;;3.47;;
11522;SDS011;40093;43.224;27.910;2022-09-09T15:00:06;3.90;;;3.50;;
11522;SDS011;40093;43.224;27.910;2022-09-09T15:02:35;4.37;;;3.50;;
11522;SDS011;40093;43.224;27.910;2022-09-09T15:05:03;4.20;;;3.43;;
11522;SDS011;40093;43.224;27.910;2022-09-09T15:07:44;4.30;;;3.20;;
11522;SDS011;40093;43.224;27.910;2022-09-09T15:10:12;3.60;;;3.30;;
11522;SDS011;40093;43.224;27.910;2022-09-09T15:12:46;4.60;;;3.73;;